sensor_id;sensor_type;location;lat;lon;timestamp;temperature;humidity
3564;DHT22;1796;52.388;13.096;2023-06-19T00:00:08;16.10;99.90
3564;DHT22;1796;52.388;13.096;2023-06-19T00:02:38;16.20;99.90
3564;DHT22;1796;52.388;13.096;2023-06-19T00:05:06;16.30;99.90
3564;DHT22;1796;52.388;13.096;2023-06-19T00:07:35;16.30;99.90
3564;DHT22;1796;52.388;13.096;2023-06-19T00:10:03;16.40;99.90
3564;DHT22;1796;52.388;13.096;2023-06-19T00:12:30;16.50;99.90
3564;DHT22;1796;52.388;13.096;2023-06-19T00:14:57;16.50;99.90
3564;DHT22;1796;52.388;13.096;2023-06-19T00:17:23;16.50;99.90
3564;DHT22;1796;52.388;13.096;2023-06-19T00:19:51;16.60;99.90
3564;DHT22;1796;52.388;13.096;2023-06-19T00:22:18;16.60;99.90
3564;DHT22;1796;52.388;13.096;2023-06-19T00:24:47;16.60;99.90
3564;DHT22;1796;52.388;13.096;2023-06-19T00:27:14;16.60;99.90
3564;DHT22;1796;52.388;13.096;2023-06-19T00:29:41;16.60;99.90
3564;DHT22;1796;52.388;13.096;2023-06-19T00:32:08;16.50;99.90
3564;DHT22;1796;52.388;13.096;2023-06-19T00:34:35;16.50;99.90
3564;DHT22;1796;52.388;13.096;2023-06-19T00:37:03;16.50;99.90
3564;DHT22;1796;52.388;13.096;2023-06-19T00:39:30;16.40;99.90
3564;DHT22;1796;52.388;13.096;2023-06-19T00:41:59;16.40;99.90
3564;DHT22;1796;52.388;13.096;2023-06-19T00:44:26;16.30;99.90
3564;DHT22;1796;52.388;13.096;2023-06-19T00:46:57;16.20;99.90
3564;DHT22;1796;52.388;13.096;2023-06-19T00:49:25;16.20;99.90
3564;DHT22;1796;52.388;13.096;2023-06-19T00:51:52;16.10;99.90
3564;DHT22;1796;52.388;13.096;2023-06-19T00:54:20;16.10;99.90
3564;DHT22;1796;52.388;13.096;2023-06-19T00:56:47;16.10;99.90
3564;DHT22;1796;52.388;13.096;2023-06-19T00:59:17;16.10;99.90
3564;DHT22;1796;52.388;13.096;2023-06-19T01:01:45;16.00;99.90
3564;DHT22;1796;52.388;13.096;2023-06-19T01:04:13;16.00;99.90
3564;DHT22;1796;52.388;13.096;2023-06-19T01:06:45;15.90;99.90
3564;DHT22;1796;52.388;13.096;2023-06-19T01:09:15;15.90;99.90
3564;DHT22;1796;52.388;13.096;2023-06-19T01:11:46;15.70;99.90
3564;DHT22;1796;52.388;13.096;2023-06-19T01:14:18;15.80;99.90
3564;DHT22;1796;52.388;13.096;2023-06-19T01:16:45;15.70;99.90
3564;DHT22;1796;52.388;13.096;2023-06-19T01:19:18;15.80;99.90
3564;DHT22;1796;52.388;13.096;2023-06-19T01:21:45;15.80;99.90
3564;DHT22;1796;52.388;13.096;2023-06-19T01:24:14;15.90;99.90
3564;DHT22;1796;52.388;13.096;2023-06-19T01:26:41;15.90;99.90
3564;DHT22;1796;52.388;13.096;2023-06-19T01:29:12;15.90;99.90
3564;DHT22;1796;52.388;13.096;2023-06-19T01:31:46;15.90;99.90
3564;DHT22;1796;52.388;13.096;2023-06-19T01:34:17;15.90;99.90
3564;DHT22;1796;52.388;13.096;2023-06-19T01:36:47;15.90;99.90
3564;DHT22;1796;52.388;13.096;2023-06-19T01:39:18;15.90;99.90
3564;DHT22;1796;52.388;13.096;2023-06-19T01:41:46;15.90;99.90
3564;DHT22;1796;52.388;13.096;2023-06-19T01:44:14;16.00;99.90
3564;DHT22;1796;52.388;13.096;2023-06-19T01:46:41;16.00;99.90
3564;DHT22;1796;52.388;13.096;2023-06-19T01:49:08;16.00;99.90
3564;DHT22;1796;52.388;13.096;2023-06-19T01:51:36;16.00;99.90
3564;DHT22;1796;52.388;13.096;2023-06-19T01:54:03;16.00;99.90
3564;DHT22;1796;52.388;13.096;2023-06-19T01:56:32;16.10;99.90
3564;DHT22;1796;52.388;13.096;2023-06-19T01:58:59;16.10;99.90
3564;DHT22;1796;52.388;13.096;2023-06-19T02:01:26;16.10;99.90
3564;DHT22;1796;52.388;13.096;2023-06-19T02:03:53;16.10;99.90
3564;DHT22;1796;52.388;13.096;2023-06-19T02:06:20;16.00;99.90
3564;DHT22;1796;52.388;13.096;2023-06-19T02:08:48;16.00;99.90
3564;DHT22;1796;52.388;13.096;2023-06-19T02:11:15;16.00;99.90
3564;DHT22;1796;52.388;13.096;2023-06-19T02:13:43;15.90;99.90
3564;DHT22;1796;52.388;13.096;2023-06-19T02:16:10;15.90;99.90
3564;DHT22;1796;52.388;13.096;2023-06-19T02:18:37;15.80;99.90
3564;DHT22;1796;52.388;13.096;2023-06-19T02:21:03;15.90;99.90
3564;DHT22;1796;52.388;13.096;2023-06-19T02:23:30;16.00;99.90
3564;DHT22;1796;52.388;13.096;2023-06-19T02:25:57;16.00;99.90
3564;DHT22;1796;52.388;13.096;2023-06-19T02:28:24;16.10;99.90
3564;DHT22;1796;52.388;13.096;2023-06-19T02:30:53;16.10;99.90
3564;DHT22;1796;52.388;13.096;2023-06-19T02:33:20;16.10;99.90
3564;DHT22;1796;52.388;13.096;2023-06-19T02:35:47;16.10;99.90
3564;DHT22;1796;52.388;13.096;2023-06-19T02:38:14;16.10;99.90
3564;DHT22;1796;52.388;13.096;2023-06-19T02:40:41;16.10;99.90
3564;DHT22;1796;52.388;13.096;2023-06-19T02:43:07;16.10;99.90
3564;DHT22;1796;52.388;13.096;2023-06-19T02:45:34;16.20;99.90
3564;DHT22;1796;52.388;13.096;2023-06-19T02:48:03;16.20;99.90
3564;DHT22;1796;52.388;13.096;2023-06-19T02:50:30;16.30;99.90
3564;DHT22;1796;52.388;13.096;2023-06-19T02:52:57;16.40;99.90
3564;DHT22;1796;52.388;13.096;2023-06-19T02:55:24;16.40;99.90
3564;DHT22;1796;52.388;13.096;2023-06-19T02:57:50;16.50;99.90
3564;DHT22;1796;52.388;13.096;2023-06-19T03:00:18;16.50;99.90
3564;DHT22;1796;52.388;13.096;2023-06-19T03:02:45;16.50;99.90
3564;DHT22;1796;52.388;13.096;2023-06-19T03:05:15;16.50;99.90
3564;DHT22;1796;52.388;13.096;2023-06-19T03:07:42;16.60;99.90
3564;DHT22;1796;52.388;13.096;2023-06-19T03:10:09;16.60;99.90
3564;DHT22;1796;52.388;13.096;2023-06-19T03:12:36;16.60;99.90
3564;DHT22;1796;52.388;13.096;2023-06-19T03:15:04;16.70;99.90
3564;DHT22;1796;52.388;13.096;2023-06-19T03:17:31;16.70;99.90
3564;DHT22;1796;52.388;13.096;2023-06-19T03:19:58;16.70;99.90
3564;DHT22;1796;52.388;13.096;2023-06-19T03:22:26;16.80;99.90
3564;DHT22;1796;52.388;13.096;2023-06-19T03:24:52;16.90;99.90
3564;DHT22;1796;52.388;13.096;2023-06-19T03:27:19;16.90;99.90
3564;DHT22;1796;52.388;13.096;2023-06-19T03:29:46;16.90;99.90
3564;DHT22;1796;52.388;13.096;2023-06-19T03:32:13;17.00;99.90
3564;DHT22;1796;52.388;13.096;2023-06-19T03:34:40;17.00;99.90
3564;DHT22;1796;52.388;13.096;2023-06-19T03:37:07;17.00;99.90
3564;DHT22;1796;52.388;13.096;2023-06-19T03:39:35;17.20;99.90
3564;DHT22;1796;52.388;13.096;2023-06-19T03:42:02;17.20;99.90
3564;DHT22;1796;52.388;13.096;2023-06-19T03:44:29;17.30;99.90
3564;DHT22;1796;52.388;13.096;2023-06-19T03:46:56;17.30;99.90
3564;DHT22;1796;52.388;13.096;2023-06-19T03:49:23;17.30;99.90
3564;DHT22;1796;52.388;13.096;2023-06-19T03:51:49;17.30;99.90
3564;DHT22;1796;52.388;13.096;2023-06-19T03:54:16;17.30;99.90
3564;DHT22;1796;52.388;13.096;2023-06-19T03:56:45;17.30;99.90
3564;DHT22;1796;52.388;13.096;2023-06-19T03:59:11;17.30;99.90
3564;DHT22;1796;52.388;13.096;2023-06-19T04:01:38;17.30;99.90
3564;DHT22;1796;52.388;13.096;2023-06-19T04:04:06;17.40;99.90
3564;DHT22;1796;52.388;13.096;2023-06-19T04:06:33;17.40;99.90
3564;DHT22;1796;52.388;13.096;2023-06-19T04:09:00;17.50;99.90
3564;DHT22;1796;52.388;13.096;2023-06-19T04:11:27;17.60;99.90
3564;DHT22;1796;52.388;13.096;2023-06-19T04:13:55;17.60;99.90
3564;DHT22;1796;52.388;13.096;2023-06-19T04:16:22;17.60;99.90
3564;DHT22;1796;52.388;13.096;2023-06-19T04:18:49;17.70;99.90
3564;DHT22;1796;52.388;13.096;2023-06-19T04:21:16;17.80;99.90
3564;DHT22;1796;52.388;13.096;2023-06-19T04:23:42;17.80;99.90
3564;DHT22;1796;52.388;13.096;2023-06-19T04:26:09;17.80;99.90
3564;DHT22;1796;52.388;13.096;2023-06-19T04:28:36;17.80;99.90
3564;DHT22;1796;52.388;13.096;2023-06-19T04:31:04;17.70;99.90
3564;DHT22;1796;52.388;13.096;2023-06-19T04:33:31;17.70;99.90
3564;DHT22;1796;52.388;13.096;2023-06-19T04:35:58;17.80;99.90
3564;DHT22;1796;52.388;13.096;2023-06-19T04:38:26;17.80;99.90
3564;DHT22;1796;52.388;13.096;2023-06-19T04:40:53;17.90;99.90
3564;DHT22;1796;52.388;13.096;2023-06-19T04:43:20;17.90;99.90
3564;DHT22;1796;52.388;13.096;2023-06-19T04:45:46;18.00;99.90
3564;DHT22;1796;52.388;13.096;2023-06-19T04:48:15;18.00;99.90
3564;DHT22;1796;52.388;13.096;2023-06-19T04:50:42;18.10;99.90
3564;DHT22;1796;52.388;13.096;2023-06-19T04:53:08;18.10;99.90
3564;DHT22;1796;52.388;13.096;2023-06-19T04:55:35;18.20;99.90
3564;DHT22;1796;52.388;13.096;2023-06-19T04:58:03;18.20;99.90
3564;DHT22;1796;52.388;13.096;2023-06-19T05:00:30;18.20;99.90
3564;DHT22;1796;52.388;13.096;2023-06-19T05:02:56;18.30;99.90
3564;DHT22;1796;52.388;13.096;2023-06-19T05:05:27;18.30;99.90
3564;DHT22;1796;52.388;13.096;2023-06-19T05:07:54;18.40;99.90
3564;DHT22;1796;52.388;13.096;2023-06-19T05:10:21;18.50;99.90
3564;DHT22;1796;52.388;13.096;2023-06-19T05:12:48;18.40;99.90
3564;DHT22;1796;52.388;13.096;2023-06-19T05:15:15;18.50;99.90
3564;DHT22;1796;52.388;13.096;2023-06-19T05:17:42;18.50;99.90
3564;DHT22;1796;52.388;13.096;2023-06-19T05:20:12;18.60;99.90
3564;DHT22;1796;52.388;13.096;2023-06-19T05:22:40;18.70;99.90
3564;DHT22;1796;52.388;13.096;2023-06-19T05:25:08;18.70;99.90
3564;DHT22;1796;52.388;13.096;2023-06-19T05:27:35;18.70;99.90
3564;DHT22;1796;52.388;13.096;2023-06-19T05:30:02;18.80;99.90
3564;DHT22;1796;52.388;13.096;2023-06-19T05:32:29;18.90;99.90
3564;DHT22;1796;52.388;13.096;2023-06-19T05:34:56;18.70;99.90
3564;DHT22;1796;52.388;13.096;2023-06-19T05:37:23;18.70;99.90
3564;DHT22;1796;52.388;13.096;2023-06-19T05:39:51;18.70;99.90
3564;DHT22;1796;52.388;13.096;2023-06-19T05:42:18;18.80;99.90
3564;DHT22;1796;52.388;13.096;2023-06-19T05:44:45;19.00;99.90
3564;DHT22;1796;52.388;13.096;2023-06-19T05:47:12;19.20;99.90
3564;DHT22;1796;52.388;13.096;2023-06-19T05:49:42;19.30;99.90
3564;DHT22;1796;52.388;13.096;2023-06-19T05:52:09;19.60;99.90
3564;DHT22;1796;52.388;13.096;2023-06-19T05:54:36;19.70;99.90
3564;DHT22;1796;52.388;13.096;2023-06-19T05:57:05;19.80;99.90
3564;DHT22;1796;52.388;13.096;2023-06-19T05:59:32;19.90;99.90
3564;DHT22;1796;52.388;13.096;2023-06-19T06:01:58;19.90;99.90
3564;DHT22;1796;52.388;13.096;2023-06-19T06:04:26;20.00;99.90
3564;DHT22;1796;52.388;13.096;2023-06-19T06:06:53;20.10;99.90
3564;DHT22;1796;52.388;13.096;2023-06-19T06:09:20;20.00;99.90
3564;DHT22;1796;52.388;13.096;2023-06-19T06:11:46;20.30;99.90
3564;DHT22;1796;52.388;13.096;2023-06-19T06:14:15;20.50;99.90
3564;DHT22;1796;52.388;13.096;2023-06-19T06:16:42;20.60;99.90
3564;DHT22;1796;52.388;13.096;2023-06-19T06:19:09;20.80;99.90
3564;DHT22;1796;52.388;13.096;2023-06-19T06:21:36;21.00;99.90
3564;DHT22;1796;52.388;13.096;2023-06-19T06:24:03;21.10;99.90
3564;DHT22;1796;52.388;13.096;2023-06-19T06:26:30;21.00;99.90
3564;DHT22;1796;52.388;13.096;2023-06-19T06:28:57;21.20;99.90
3564;DHT22;1796;52.388;13.096;2023-06-19T06:31:25;21.30;99.90
3564;DHT22;1796;52.388;13.096;2023-06-19T06:33:52;21.50;99.90
3564;DHT22;1796;52.388;13.096;2023-06-19T06:36:19;21.50;99.90
3564;DHT22;1796;52.388;13.096;2023-06-19T06:38:46;21.70;99.90
3564;DHT22;1796;52.388;13.096;2023-06-19T06:41:13;22.00;99.90
3564;DHT22;1796;52.388;13.096;2023-06-19T06:43:40;22.30;99.90
3564;DHT22;1796;52.388;13.096;2023-06-19T06:46:08;22.50;99.90
3564;DHT22;1796;52.388;13.096;2023-06-19T06:48:37;22.70;99.90
3564;DHT22;1796;52.388;13.096;2023-06-19T06:51:03;22.90;99.90
3564;DHT22;1796;52.388;13.096;2023-06-19T06:53:30;23.00;99.90
3564;DHT22;1796;52.388;13.096;2023-06-19T06:55:58;23.10;99.90
3564;DHT22;1796;52.388;13.096;2023-06-19T06:58:26;23.20;99.90
3564;DHT22;1796;52.388;13.096;2023-06-19T07:00:52;23.30;99.90
3564;DHT22;1796;52.388;13.096;2023-06-19T07:03:19;23.40;99.90
3564;DHT22;1796;52.388;13.096;2023-06-19T07:05:48;23.20;99.90
3564;DHT22;1796;52.388;13.096;2023-06-19T07:08:15;23.10;99.90
3564;DHT22;1796;52.388;13.096;2023-06-19T07:10:42;23.20;99.90
3564;DHT22;1796;52.388;13.096;2023-06-19T07:13:09;23.30;99.90
3564;DHT22;1796;52.388;13.096;2023-06-19T07:15:36;23.50;99.90
3564;DHT22;1796;52.388;13.096;2023-06-19T07:18:03;23.70;99.90
3564;DHT22;1796;52.388;13.096;2023-06-19T07:20:30;23.50;99.90
3564;DHT22;1796;52.388;13.096;2023-06-19T07:22:58;23.50;99.90
3564;DHT22;1796;52.388;13.096;2023-06-19T07:25:25;23.50;99.90
3564;DHT22;1796;52.388;13.096;2023-06-19T07:27:52;23.50;99.90
3564;DHT22;1796;52.388;13.096;2023-06-19T07:30:20;23.30;99.90
3564;DHT22;1796;52.388;13.096;2023-06-19T07:32:47;23.20;99.90
3564;DHT22;1796;52.388;13.096;2023-06-19T07:35:14;23.50;99.90
3564;DHT22;1796;52.388;13.096;2023-06-19T07:37:40;23.60;99.90
3564;DHT22;1796;52.388;13.096;2023-06-19T07:40:10;24.00;99.90
3564;DHT22;1796;52.388;13.096;2023-06-19T07:42:37;24.20;99.90
3564;DHT22;1796;52.388;13.096;2023-06-19T07:45:05;24.40;99.90
3564;DHT22;1796;52.388;13.096;2023-06-19T07:47:32;24.60;99.90
3564;DHT22;1796;52.388;13.096;2023-06-19T07:49:59;24.30;99.90
3564;DHT22;1796;52.388;13.096;2023-06-19T07:52:26;24.60;99.90
3564;DHT22;1796;52.388;13.096;2023-06-19T07:54:54;24.90;99.90
3564;DHT22;1796;52.388;13.096;2023-06-19T07:57:23;25.00;99.90
3564;DHT22;1796;52.388;13.096;2023-06-19T07:59:51;24.90;99.90
3564;DHT22;1796;52.388;13.096;2023-06-19T08:02:18;24.80;99.90
3564;DHT22;1796;52.388;13.096;2023-06-19T08:04:45;24.80;99.90
3564;DHT22;1796;52.388;13.096;2023-06-19T08:07:12;24.50;99.90
3564;DHT22;1796;52.388;13.096;2023-06-19T08:09:39;24.40;99.90
3564;DHT22;1796;52.388;13.096;2023-06-19T08:12:07;24.50;99.90
3564;DHT22;1796;52.388;13.096;2023-06-19T08:14:35;24.60;99.90
3564;DHT22;1796;52.388;13.096;2023-06-19T08:17:04;24.60;99.90
3564;DHT22;1796;52.388;13.096;2023-06-19T08:19:31;24.40;99.90
3564;DHT22;1796;52.388;13.096;2023-06-19T08:21:57;24.50;99.90
3564;DHT22;1796;52.388;13.096;2023-06-19T08:24:24;24.40;99.90
3564;DHT22;1796;52.388;13.096;2023-06-19T08:26:51;24.40;99.90
3564;DHT22;1796;52.388;13.096;2023-06-19T08:29:18;24.60;99.90
3564;DHT22;1796;52.388;13.096;2023-06-19T08:31:47;24.80;99.90
3564;DHT22;1796;52.388;13.096;2023-06-19T08:34:13;25.00;99.90
3564;DHT22;1796;52.388;13.096;2023-06-19T08:36:40;25.00;99.90
3564;DHT22;1796;52.388;13.096;2023-06-19T08:39:07;25.20;99.90
3564;DHT22;1796;52.388;13.096;2023-06-19T08:41:36;25.20;99.90
3564;DHT22;1796;52.388;13.096;2023-06-19T08:44:04;25.20;99.90
3564;DHT22;1796;52.388;13.096;2023-06-19T08:46:31;25.00;99.90
3564;DHT22;1796;52.388;13.096;2023-06-19T08:48:59;25.10;99.90
3564;DHT22;1796;52.388;13.096;2023-06-19T08:51:26;25.20;99.90
3564;DHT22;1796;52.388;13.096;2023-06-19T08:53:56;25.70;99.90
3564;DHT22;1796;52.388;13.096;2023-06-19T08:56:23;26.20;99.90
3564;DHT22;1796;52.388;13.096;2023-06-19T08:58:50;26.40;99.90
3564;DHT22;1796;52.388;13.096;2023-06-19T09:01:19;26.70;99.90
3564;DHT22;1796;52.388;13.096;2023-06-19T09:03:46;26.90;99.90
3564;DHT22;1796;52.388;13.096;2023-06-19T09:06:18;26.80;99.90
3564;DHT22;1796;52.388;13.096;2023-06-19T09:08:45;26.60;99.90
3564;DHT22;1796;52.388;13.096;2023-06-19T09:11:12;26.50;99.90
3564;DHT22;1796;52.388;13.096;2023-06-19T09:13:55;26.40;99.90
3564;DHT22;1796;52.388;13.096;2023-06-19T09:16:22;26.50;99.90
3564;DHT22;1796;52.388;13.096;2023-06-19T09:18:50;26.20;99.90
3564;DHT22;1796;52.388;13.096;2023-06-19T09:21:19;25.70;99.90
3564;DHT22;1796;52.388;13.096;2023-06-19T09:23:47;25.60;99.90
3564;DHT22;1796;52.388;13.096;2023-06-19T09:26:17;25.70;99.90
3564;DHT22;1796;52.388;13.096;2023-06-19T09:28:45;26.00;99.90
3564;DHT22;1796;52.388;13.096;2023-06-19T09:31:12;26.00;99.90
3564;DHT22;1796;52.388;13.096;2023-06-19T09:33:40;25.70;99.90
3564;DHT22;1796;52.388;13.096;2023-06-19T09:36:07;25.80;99.90
3564;DHT22;1796;52.388;13.096;2023-06-19T09:38:37;25.80;99.90
3564;DHT22;1796;52.388;13.096;2023-06-19T09:41:06;26.20;99.90
3564;DHT22;1796;52.388;13.096;2023-06-19T09:43:35;26.70;99.90
3564;DHT22;1796;52.388;13.096;2023-06-19T09:46:04;26.80;99.90
3564;DHT22;1796;52.388;13.096;2023-06-19T09:48:32;26.80;99.90
3564;DHT22;1796;52.388;13.096;2023-06-19T09:51:06;26.70;99.90
3564;DHT22;1796;52.388;13.096;2023-06-19T09:53:37;26.40;99.90
3564;DHT22;1796;52.388;13.096;2023-06-19T09:56:05;25.80;99.90
3564;DHT22;1796;52.388;13.096;2023-06-19T09:58:33;25.90;99.90
3564;DHT22;1796;52.388;13.096;2023-06-19T10:01:03;26.00;99.90
3564;DHT22;1796;52.388;13.096;2023-06-19T10:03:31;25.90;99.90
3564;DHT22;1796;52.388;13.096;2023-06-19T10:05:58;26.10;99.90
3564;DHT22;1796;52.388;13.096;2023-06-19T10:08:28;26.30;99.90
3564;DHT22;1796;52.388;13.096;2023-06-19T10:10:57;26.10;99.90
3564;DHT22;1796;52.388;13.096;2023-06-19T10:13:31;25.90;99.90
3564;DHT22;1796;52.388;13.096;2023-06-19T10:15:59;25.70;99.90
3564;DHT22;1796;52.388;13.096;2023-06-19T10:18:26;25.60;99.90
3564;DHT22;1796;52.388;13.096;2023-06-19T10:20:54;26.00;99.90
3564;DHT22;1796;52.388;13.096;2023-06-19T10:23:22;26.30;99.90
3564;DHT22;1796;52.388;13.096;2023-06-19T10:25:57;26.40;99.90
3564;DHT22;1796;52.388;13.096;2023-06-19T10:28:26;26.30;99.90
3564;DHT22;1796;52.388;13.096;2023-06-19T10:30:54;26.20;99.90
3564;DHT22;1796;52.388;13.096;2023-06-19T10:33:21;26.30;99.90
3564;DHT22;1796;52.388;13.096;2023-06-19T10:35:48;26.30;99.90
3564;DHT22;1796;52.388;13.096;2023-06-19T10:38:15;26.10;99.90
3564;DHT22;1796;52.388;13.096;2023-06-19T10:40:43;26.50;99.90
3564;DHT22;1796;52.388;13.096;2023-06-19T10:43:12;26.70;99.90
3564;DHT22;1796;52.388;13.096;2023-06-19T10:45:38;26.40;99.90
3564;DHT22;1796;52.388;13.096;2023-06-19T10:48:05;26.40;99.90
3564;DHT22;1796;52.388;13.096;2023-06-19T10:50:37;26.60;99.90
3564;DHT22;1796;52.388;13.096;2023-06-19T10:53:06;26.70;99.90
3564;DHT22;1796;52.388;13.096;2023-06-19T10:55:33;26.90;99.90
3564;DHT22;1796;52.388;13.096;2023-06-19T10:58:00;27.40;99.90
3564;DHT22;1796;52.388;13.096;2023-06-19T11:00:30;26.80;99.90
3564;DHT22;1796;52.388;13.096;2023-06-19T11:02:58;27.10;99.90
3564;DHT22;1796;52.388;13.096;2023-06-19T11:05:27;27.20;99.90
3564;DHT22;1796;52.388;13.096;2023-06-19T11:07:55;27.30;99.90
3564;DHT22;1796;52.388;13.096;2023-06-19T11:10:23;27.40;99.90
3564;DHT22;1796;52.388;13.096;2023-06-19T11:12:53;27.50;99.90
3564;DHT22;1796;52.388;13.096;2023-06-19T11:15:29;28.40;99.90
3564;DHT22;1796;52.388;13.096;2023-06-19T11:17:56;29.00;99.90
3564;DHT22;1796;52.388;13.096;2023-06-19T11:20:23;29.40;99.90
3564;DHT22;1796;52.388;13.096;2023-06-19T11:22:55;29.90;99.90
3564;DHT22;1796;52.388;13.096;2023-06-19T11:25:22;29.90;99.90
3564;DHT22;1796;52.388;13.096;2023-06-19T11:27:49;29.60;99.90
3564;DHT22;1796;52.388;13.096;2023-06-19T11:30:18;30.00;99.90
3564;DHT22;1796;52.388;13.096;2023-06-19T11:32:47;30.40;99.90
3564;DHT22;1796;52.388;13.096;2023-06-19T11:35:17;30.40;99.90
3564;DHT22;1796;52.388;13.096;2023-06-19T11:37:44;30.50;99.90
3564;DHT22;1796;52.388;13.096;2023-06-19T11:40:11;30.20;99.90
3564;DHT22;1796;52.388;13.096;2023-06-19T11:42:47;30.50;99.90
3564;DHT22;1796;52.388;13.096;2023-06-19T11:45:14;30.70;99.90
3564;DHT22;1796;52.388;13.096;2023-06-19T11:47:43;31.20;99.90
3564;DHT22;1796;52.388;13.096;2023-06-19T11:50:12;31.40;99.90
3564;DHT22;1796;52.388;13.096;2023-06-19T11:52:42;31.40;99.90
3564;DHT22;1796;52.388;13.096;2023-06-19T11:55:09;31.60;99.90
3564;DHT22;1796;52.388;13.096;2023-06-19T11:57:36;31.40;99.90
3564;DHT22;1796;52.388;13.096;2023-06-19T12:00:13;31.30;99.90
3564;DHT22;1796;52.388;13.096;2023-06-19T12:02:40;31.50;99.90
3564;DHT22;1796;52.388;13.096;2023-06-19T12:05:08;31.80;99.90
3564;DHT22;1796;52.388;13.096;2023-06-19T12:07:37;31.90;99.90
3564;DHT22;1796;52.388;13.096;2023-06-19T12:10:05;31.60;99.90
3564;DHT22;1796;52.388;13.096;2023-06-19T12:12:35;31.40;99.90
3564;DHT22;1796;52.388;13.096;2023-06-19T12:15:03;31.50;99.90
3564;DHT22;1796;52.388;13.096;2023-06-19T12:17:30;31.30;99.90
3564;DHT22;1796;52.388;13.096;2023-06-19T12:19:58;31.00;99.90
3564;DHT22;1796;52.388;13.096;2023-06-19T12:22:26;30.70;99.90
3564;DHT22;1796;52.388;13.096;2023-06-19T12:24:54;30.60;99.90
3564;DHT22;1796;52.388;13.096;2023-06-19T12:27:21;30.30;99.90
3564;DHT22;1796;52.388;13.096;2023-06-19T12:29:48;30.30;99.90
3564;DHT22;1796;52.388;13.096;2023-06-19T12:32:15;30.50;99.90
3564;DHT22;1796;52.388;13.096;2023-06-19T12:34:41;30.50;99.90
3564;DHT22;1796;52.388;13.096;2023-06-19T12:37:13;29.80;99.90
3564;DHT22;1796;52.388;13.096;2023-06-19T12:39:40;30.40;99.90
3564;DHT22;1796;52.388;13.096;2023-06-19T12:42:09;30.70;99.90
3564;DHT22;1796;52.388;13.096;2023-06-19T12:44:37;30.70;99.90
3564;DHT22;1796;52.388;13.096;2023-06-19T12:47:05;30.70;99.90
3564;DHT22;1796;52.388;13.096;2023-06-19T12:49:32;30.70;99.90
3564;DHT22;1796;52.388;13.096;2023-06-19T12:51:59;30.50;99.90
3564;DHT22;1796;52.388;13.096;2023-06-19T12:54:26;30.60;99.90
3564;DHT22;1796;52.388;13.096;2023-06-19T12:56:53;30.70;99.90
3564;DHT22;1796;52.388;13.096;2023-06-19T12:59:21;30.70;99.90
3564;DHT22;1796;52.388;13.096;2023-06-19T13:01:48;31.00;99.90
3564;DHT22;1796;52.388;13.096;2023-06-19T13:04:15;31.00;99.90
3564;DHT22;1796;52.388;13.096;2023-06-19T13:06:42;30.90;99.90
3564;DHT22;1796;52.388;13.096;2023-06-19T13:09:09;31.10;99.90
3564;DHT22;1796;52.388;13.096;2023-06-19T13:11:36;31.60;99.90
3564;DHT22;1796;52.388;13.096;2023-06-19T13:14:03;32.00;99.90
3564;DHT22;1796;52.388;13.096;2023-06-19T13:16:32;32.00;99.90
3564;DHT22;1796;52.388;13.096;2023-06-19T13:18:58;31.30;99.90
3564;DHT22;1796;52.388;13.096;2023-06-19T13:21:25;30.90;99.90
3564;DHT22;1796;52.388;13.096;2023-06-19T13:23:52;30.30;99.90
3564;DHT22;1796;52.388;13.096;2023-06-19T13:26:19;30.60;99.90
3564;DHT22;1796;52.388;13.096;2023-06-19T13:28:46;30.70;99.90
3564;DHT22;1796;52.388;13.096;2023-06-19T13:31:13;30.70;99.90
3564;DHT22;1796;52.388;13.096;2023-06-19T13:33:41;30.50;99.90
3564;DHT22;1796;52.388;13.096;2023-06-19T13:36:08;30.40;99.90
3564;DHT22;1796;52.388;13.096;2023-06-19T13:38:35;30.60;99.90
3564;DHT22;1796;52.388;13.096;2023-06-19T13:41:02;30.80;99.90
3564;DHT22;1796;52.388;13.096;2023-06-19T13:43:29;30.20;99.90
3564;DHT22;1796;52.388;13.096;2023-06-19T13:45:56;30.50;99.90
3564;DHT22;1796;52.388;13.096;2023-06-19T13:48:23;30.70;99.90
3564;DHT22;1796;52.388;13.096;2023-06-19T13:50:51;30.50;99.90
3564;DHT22;1796;52.388;13.096;2023-06-19T13:53:18;30.50;99.90
3564;DHT22;1796;52.388;13.096;2023-06-19T13:55:47;30.10;99.90
3564;DHT22;1796;52.388;13.096;2023-06-19T13:58:14;30.50;99.90
3564;DHT22;1796;52.388;13.096;2023-06-19T14:00:41;30.80;99.90
3564;DHT22;1796;52.388;13.096;2023-06-19T14:03:07;31.20;99.90
3564;DHT22;1796;52.388;13.096;2023-06-19T14:05:34;31.00;99.90
3564;DHT22;1796;52.388;13.096;2023-06-19T14:08:04;31.00;99.90
3564;DHT22;1796;52.388;13.096;2023-06-19T14:10:31;31.10;99.90
3564;DHT22;1796;52.388;13.096;2023-06-19T14:12:58;31.30;99.90
3564;DHT22;1796;52.388;13.096;2023-06-19T14:15:25;31.40;99.90
3564;DHT22;1796;52.388;13.096;2023-06-19T14:17:52;31.60;99.90
3564;DHT22;1796;52.388;13.096;2023-06-19T14:20:19;31.60;99.90
3564;DHT22;1796;52.388;13.096;2023-06-19T14:22:45;31.80;99.90
3564;DHT22;1796;52.388;13.096;2023-06-19T14:25:14;31.90;99.90
3564;DHT22;1796;52.388;13.096;2023-06-19T14:27:41;31.90;99.90
3564;DHT22;1796;52.388;13.096;2023-06-19T14:30:08;31.70;99.90
3564;DHT22;1796;52.388;13.096;2023-06-19T14:32:36;31.90;99.90
3564;DHT22;1796;52.388;13.096;2023-06-19T14:35:03;32.30;99.90
3564;DHT22;1796;52.388;13.096;2023-06-19T14:37:30;32.40;99.90
3564;DHT22;1796;52.388;13.096;2023-06-19T14:39:57;31.80;99.90
3564;DHT22;1796;52.388;13.096;2023-06-19T14:42:25;31.60;99.90
3564;DHT22;1796;52.388;13.096;2023-06-19T14:44:52;31.50;99.90
3564;DHT22;1796;52.388;13.096;2023-06-19T14:47:19;31.90;99.90
3564;DHT22;1796;52.388;13.096;2023-06-19T14:49:45;32.30;99.90
3564;DHT22;1796;52.388;13.096;2023-06-19T14:52:13;32.20;99.90
3564;DHT22;1796;52.388;13.096;2023-06-19T14:54:40;31.70;99.90
3564;DHT22;1796;52.388;13.096;2023-06-19T14:57:07;31.60;99.90
3564;DHT22;1796;52.388;13.096;2023-06-19T14:59:36;31.50;99.90
3564;DHT22;1796;52.388;13.096;2023-06-19T15:02:03;31.50;99.90
3564;DHT22;1796;52.388;13.096;2023-06-19T15:04:32;31.40;99.90
3564;DHT22;1796;52.388;13.096;2023-06-19T15:06:59;31.20;99.90
3564;DHT22;1796;52.388;13.096;2023-06-19T15:09:26;31.10;99.90
3564;DHT22;1796;52.388;13.096;2023-06-19T15:11:53;31.10;99.90
3564;DHT22;1796;52.388;13.096;2023-06-19T15:14:20;30.70;99.90
3564;DHT22;1796;52.388;13.096;2023-06-19T15:16:48;30.50;99.90
3564;DHT22;1796;52.388;13.096;2023-06-19T15:19:15;30.70;99.90
3564;DHT22;1796;52.388;13.096;2023-06-19T15:21:42;31.00;99.90
3564;DHT22;1796;52.388;13.096;2023-06-19T15:24:09;31.10;99.90
3564;DHT22;1796;52.388;13.096;2023-06-19T15:26:36;31.20;99.90
3564;DHT22;1796;52.388;13.096;2023-06-19T15:29:03;31.10;99.90
3564;DHT22;1796;52.388;13.096;2023-06-19T15:31:31;31.00;99.90
3564;DHT22;1796;52.388;13.096;2023-06-19T15:33:59;30.80;99.90
3564;DHT22;1796;52.388;13.096;2023-06-19T15:36:26;30.60;99.90
3564;DHT22;1796;52.388;13.096;2023-06-19T15:38:53;30.60;99.90
3564;DHT22;1796;52.388;13.096;2023-06-19T15:41:20;30.80;99.90
3564;DHT22;1796;52.388;13.096;2023-06-19T15:43:46;30.90;99.90
3564;DHT22;1796;52.388;13.096;2023-06-19T15:46:14;30.90;99.90